createdAt,value
2023-02-01T00:00:25.308Z,100172.94
2023-02-01T00:01:27.433Z,100179.03
2023-02-01T00:02:29.722Z,100183.66
2023-02-01T00:03:31.898Z,100183.88
2023-02-01T00:04:34.044Z,100180.31
2023-02-01T00:05:36.244Z,100174.84
2023-02-01T00:06:38.319Z,100181.38
2023-02-01T00:07:40.583Z,100172.31
2023-02-01T00:08:42.749Z,100179.69
2023-02-01T00:09:44.844Z,100178.03
2023-02-01T00:10:47.012Z,100182.66
2023-02-01T00:11:49.171Z,100185.41
2023-02-01T00:12:51.342Z,100188.38
2023-02-01T00:13:54.282Z,100190.88
2023-02-01T00:14:56.409Z,100199.91
2023-02-01T00:16:29.342Z,100196.34
2023-02-01T00:17:31.537Z,100196.34
2023-02-01T00:18:35.238Z,100187.50
2023-02-01T00:19:38.438Z,100185.63
2023-02-01T00:20:46.907Z,100180.16
2023-02-01T00:21:49.147Z,100189.41
2023-02-01T00:22:51.433Z,100194.88
2023-02-01T00:23:53.676Z,100189.66
2023-02-01T00:24:55.880Z,100198.66
2023-02-01T00:26:03.932Z,100188.56
2023-02-01T00:27:08.892Z,100186.91
2023-02-01T00:28:11.105Z,100191.53
2023-02-01T00:29:16.344Z,100185.22
2023-02-01T00:30:20.102Z,100194.25
2023-02-01T00:31:22.972Z,100189.84
2023-02-01T00:32:25.462Z,100191.75
2023-02-01T00:33:29.249Z,100196.41
2023-02-01T00:34:31.444Z,100180.00
2023-02-01T00:35:35.481Z,100186.75
2023-02-01T00:36:37.619Z,100182.09
2023-02-01T00:37:39.781Z,100186.50
2023-02-01T00:38:42.009Z,100184.59
2023-02-01T00:39:44.348Z,100191.97
2023-02-01T00:40:47.684Z,100184.59
2023-02-01T00:41:49.910Z,100178.91
2023-02-01T00:42:53.214Z,100188.78
2023-02-01T00:43:55.578Z,100186.06
2023-02-01T00:44:57.835Z,100187.72
2023-02-01T00:46:00.285Z,100180.34
2023-02-01T00:47:02.678Z,100179.53
2023-02-01T00:48:06.337Z,100176.78
2023-02-01T00:49:10.184Z,100195.94
2023-02-01T00:50:12.459Z,100191.28
2023-02-01T00:51:17.483Z,100189.41
2023-02-01T00:52:19.683Z,100189.41
2023-02-01T00:53:21.943Z,100181.22
2023-02-01T00:54:24.267Z,100177.41
2023-02-01T00:55:26.846Z,100185.63
2023-02-01T00:56:29.142Z,100189.41
2023-02-01T00:57:32.172Z,100189.19
2023-02-01T00:58:35.063Z,100183.94
2023-02-01T00:59:37.643Z,100177.41
2023-02-01T01:00:39.873Z,100182.88
2023-02-01T01:01:42.515Z,100182.88
2023-02-01T01:02:44.701Z,100174.69
2023-02-01T01:03:50.455Z,100170.88
2023-02-01T01:04:52.708Z,100180.16
2023-02-01T01:06:01.159Z,100179.31
2023-02-01T01:07:04.423Z,100171.09
2023-02-01T01:08:06.572Z,100186.69
2023-02-01T01:09:10.424Z,100183.31
2023-02-01T01:10:12.664Z,100194.25
2023-02-01T01:11:17.615Z,100182.50
2023-02-01T01:12:20.858Z,100185.22
2023-02-01T01:13:23.152Z,100177.03
2023-02-01T01:14:25.384Z,100180.59
2023-02-01T01:15:27.597Z,100183.31
2023-02-01T01:16:32.110Z,100180.59
2023-02-01T01:17:34.375Z,100175.34
2023-02-01T01:18:37.292Z,100181.63
2023-02-01T01:19:39.615Z,100182.72
2023-02-01T01:20:42.957Z,100193.66
2023-02-01T01:21:45.163Z,100182.72
2023-02-01T01:22:47.322Z,100181.88
2023-02-01T01:23:49.702Z,100183.53
2023-02-01T01:24:51.923Z,100176.16
2023-02-01T01:25:54.179Z,100172.59
2023-02-01T01:26:56.593Z,100177.25
2023-02-01T01:27:59.462Z,100179.13
2023-02-01T01:29:02.768Z,100173.66
2023-02-01T01:30:05.438Z,100174.72
2023-02-01T01:31:13.826Z,100180.19
2023-02-01T01:32:16.457Z,100179.34
2023-02-01T01:33:18.677Z,100170.34
2023-02-01T01:34:20.828Z,100176.63
2023-02-01T01:35:23.095Z,100173.88
2023-02-01T01:36:26.440Z,100173.06
2023-02-01T01:37:28.701Z,100184.81
2023-02-01T01:38:31.288Z,100181.03
2023-02-01T01:39:34.233Z,100177.44
2023-02-01T01:40:37.480Z,100176.41
2023-02-01T01:41:41.265Z,100180.81
2023-02-01T01:42:57.834Z,100173.44
2023-02-01T01:44:04.543Z,100175.34
2023-02-01T01:45:23.713Z,100178.31
2023-02-01T01:46:37.309Z,100174.53
2023-02-01T01:47:50.123Z,100171.78
2023-02-01T01:49:16.219Z,100164.41
2023-02-01T01:50:22.254Z,100171.78
2023-02-01T01:51:27.096Z,100173.66
2023-02-01T01:52:29.640Z,100175.56
2023-02-01T01:53:38.683Z,100176.41
2023-02-01T01:54:48.200Z,100170.09
2023-02-01T01:55:53.192Z,100162.94
2023-02-01T01:57:00.061Z,100173.88
2023-02-01T01:58:15.609Z,100173.06
2023-02-01T01:59:18.248Z,100165.06
2023-02-01T02:00:22.467Z,100169.47
2023-02-01T02:01:29.734Z,100172.22
2023-02-01T02:02:32.290Z,100167.78
2023-02-01T02:03:41.677Z,100168.88
2023-02-01T02:04:44.021Z,100168.88
2023-02-01T02:05:48.808Z,100170.75
2023-02-01T02:07:12.933Z,100169.72
2023-02-01T02:08:15.162Z,100166.97
2023-02-01T02:09:17.501Z,100177.09
2023-02-01T02:10:20.716Z,100173.25
2023-02-01T02:11:23.082Z,100169.94
2023-02-01T02:12:25.288Z,100164.22
2023-02-01T02:13:30.902Z,100170.53
2023-02-01T02:14:35.188Z,100168.66
2023-02-01T02:15:42.935Z,100176.00
2023-02-01T02:16:59.037Z,100168.66
2023-02-01T02:18:47.416Z,100164.88
2023-02-01T02:20:12.997Z,100162.94
2023-02-01T02:21:19.717Z,100158.31
2023-02-01T02:22:24.859Z,100150.34
2023-02-01T02:23:55.776Z,100156.66
2023-02-01T02:25:31.188Z,100152.25
2023-02-01T02:26:41.886Z,100156.84
2023-02-01T02:28:21.416Z,100156.66
2023-02-01T02:29:30.121Z,100152.47
2023-02-01T02:30:42.743Z,100151.63
2023-02-01T02:32:16.721Z,100153.28
2023-02-01T02:33:43.124Z,100160.88
2023-02-01T02:34:47.873Z,100143.66
2023-02-01T02:36:15.716Z,100146.38
2023-02-01T02:37:39.548Z,100149.13
2023-02-01T02:38:59.829Z,100140.91
2023-02-01T02:40:32.287Z,100148.28
2023-02-01T02:42:19.573Z,100140.09
2023-02-01T02:43:49.744Z,100132.09
2023-02-01T02:45:37.103Z,100130.22
2023-02-01T02:47:09.952Z,100126.63
2023-02-01T02:48:26.281Z,100133.16
2023-02-01T02:49:45.066Z,100131.72
2023-02-01T02:51:12.059Z,100127.31
2023-02-01T02:52:37.681Z,100139.91
2023-02-01T02:54:06.000Z,100138.22
2023-02-01T02:55:09.834Z,100140.16
2023-02-01T02:56:32.366Z,100142.88
2023-02-01T02:58:02.467Z,100137.41
2023-02-01T02:59:24.312Z,100143.06
2023-02-01T03:00:51.533Z,100147.72
2023-02-01T03:02:13.190Z,100145.00
2023-02-01T03:03:34.215Z,100145.81
2023-02-01T03:04:37.038Z,100150.69
2023-02-01T03:05:44.545Z,100143.31
2023-02-01T03:06:48.266Z,100139.75
2023-02-01T03:08:16.051Z,100145.22
2023-02-01T03:09:32.630Z,100144.16
2023-02-01T03:11:03.624Z,100139.53
2023-02-01T03:12:32.084Z,100149.63
2023-02-01T03:13:57.523Z,100147.94
2023-02-01T03:15:09.110Z,100150.47
2023-02-01T03:16:32.006Z,100155.91
2023-02-01T03:17:39.807Z,100148.78
2023-02-01T03:18:56.955Z,100150.47
2023-02-01T03:20:04.726Z,100147.09
2023-02-01T03:21:12.417Z,100148.78
2023-02-01T03:22:29.017Z,100156.97
2023-02-01T03:23:35.420Z,100152.38
2023-02-01T03:24:45.651Z,100152.56
2023-02-01T03:25:51.448Z,100149.63
2023-02-01T03:26:57.005Z,100143.94
2023-02-01T03:28:05.134Z,100151.09
2023-02-01T03:29:15.255Z,100138.22
2023-02-01T03:30:39.028Z,100140.97
2023-02-01T03:31:42.507Z,100133.81
2023-02-01T03:33:00.216Z,100144.53
2023-02-01T03:34:06.551Z,100140.16
2023-02-01T03:35:10.315Z,100132.78
2023-02-01T03:36:23.898Z,100130.84
2023-02-01T03:37:29.484Z,100139.69
2023-02-01T03:38:38.302Z,100140.50
2023-02-01T03:39:51.655Z,100136.72
2023-02-01T03:41:29.435Z,100135.91
2023-02-01T03:42:39.978Z,100139.47
2023-02-01T03:44:02.821Z,100134.81
2023-02-01T03:45:12.883Z,100132.94
2023-02-01T03:46:23.145Z,100131.03
2023-02-01T03:47:29.235Z,100136.50
2023-02-01T03:48:33.373Z,100148.28
2023-02-01T03:49:41.378Z,100134.63
2023-02-01T03:50:53.358Z,100141.97
2023-02-01T03:51:57.817Z,100140.28
2023-02-01T03:53:14.529Z,100137.13
2023-02-01T03:54:19.143Z,100133.53
2023-02-01T03:55:24.599Z,100122.59
2023-02-01T03:56:28.889Z,100128.91
2023-02-01T03:57:35.101Z,100132.72
2023-02-01T03:58:37.414Z,100124.28
2023-02-01T03:59:42.047Z,100123.44
2023-02-01T04:00:52.957Z,100128.69
2023-02-01T04:01:55.242Z,100121.53
2023-02-01T04:02:57.651Z,100116.94
2023-02-01T04:04:01.884Z,100121.31
2023-02-01T04:05:04.647Z,100117.53
2023-02-01T04:06:07.180Z,100108.50
2023-02-01T04:07:09.867Z,100109.31
2023-02-01T04:08:12.101Z,100112.69
2023-02-01T04:09:14.626Z,100121.13
2023-02-01T04:10:20.006Z,100118.16
2023-02-01T04:11:22.291Z,100118.38
2023-02-01T04:12:24.502Z,100106.59
2023-02-01T04:13:26.649Z,100108.03
2023-02-01T04:14:28.914Z,100113.50
2023-02-01T04:15:31.120Z,100098.78
2023-02-01T04:16:34.622Z,100113.28
2023-02-01T04:18:38.157Z,100122.56
2023-02-01T04:19:40.309Z,100111.63
2023-02-01T04:20:44.285Z,100104.00
2023-02-01T04:21:46.534Z,100109.25
2023-02-01T04:22:48.765Z,100106.75
2023-02-01T04:23:51.819Z,100108.19
2023-02-01T04:24:53.970Z,100106.31
2023-02-01T04:26:01.491Z,100105.22
2023-02-01T04:27:03.866Z,100098.94
2023-02-01T04:28:15.693Z,100102.50
2023-02-01T04:29:17.862Z,100092.19
2023-02-01T04:30:25.472Z,100098.28
2023-02-01T04:31:28.676Z,100099.34
2023-02-01T04:32:31.319Z,100100.16
2023-02-01T04:33:33.508Z,100091.13
2023-02-01T04:34:35.673Z,100102.88
2023-02-01T04:35:37.863Z,100095.53
2023-02-01T04:36:39.993Z,100094.69
2023-02-01T04:37:42.272Z,100096.38
2023-02-01T04:38:45.422Z,100092.56
2023-02-01T04:39:47.549Z,100092.19
2023-02-01T04:40:50.268Z,100101.22
2023-02-01T04:41:53.180Z,100093.88
2023-02-01T04:42:55.652Z,100093.88
2023-02-01T04:43:59.094Z,100090.91
2023-02-01T04:45:01.357Z,100088.41
2023-02-01T04:46:03.961Z,100083.50
2023-02-01T04:47:06.669Z,100087.69
2023-02-01T04:48:08.835Z,100082.47
2023-02-01T04:49:12.137Z,100081.41
2023-02-01T04:50:14.686Z,100071.53
2023-02-01T04:51:16.895Z,100082.47
2023-02-01T04:52:19.165Z,100070.69
2023-02-01T04:53:21.702Z,100076.75
2023-02-01T04:54:24.294Z,100067.09
2023-02-01T04:55:26.442Z,100069.00
2023-02-01T04:56:28.690Z,100068.19
2023-02-01T04:57:30.921Z,100063.78
2023-02-01T04:58:33.193Z,100063.56
2023-02-01T04:59:35.397Z,100051.78
2023-02-01T05:00:38.412Z,100058.06
2023-02-01T05:01:40.685Z,100055.56
2023-02-01T05:02:42.918Z,100051.78
2023-02-01T05:03:45.207Z,100056.16
2023-02-01T05:04:47.496Z,100054.53
2023-02-01T05:05:49.996Z,100046.09
2023-02-01T05:06:52.158Z,100043.59
2023-02-01T05:07:54.731Z,100049.63
2023-02-01T05:08:56.934Z,100051.31
2023-02-01T05:09:59.136Z,100049.41
2023-02-01T05:11:03.645Z,100046.66
2023-02-01T05:12:24.881Z,100047.53
2023-02-01T05:13:48.192Z,100040.38
2023-02-01T05:14:50.632Z,100030.25
2023-02-01T05:15:53.175Z,100038.47
2023-02-01T05:16:55.368Z,100029.22
2023-02-01T05:17:58.395Z,100028.38
2023-02-01T05:19:00.603Z,100027.28
2023-02-01T05:20:03.031Z,100030.03
2023-02-01T05:21:05.383Z,100025.66
2023-02-01T05:22:07.575Z,100031.94
2023-02-01T05:23:10.965Z,100027.09
2023-02-01T05:24:20.917Z,100020.19
2023-02-01T05:25:23.346Z,100023.72
2023-02-01T05:26:25.767Z,100023.16
2023-02-01T05:27:31.201Z,100014.72
2023-02-01T05:28:33.393Z,100020.19
2023-02-01T05:29:36.742Z,100019.94
2023-02-01T05:30:41.926Z,100029.81
2023-02-01T05:31:48.441Z,100021.63
2023-02-01T05:32:52.826Z,100019.72
2023-02-01T05:33:55.091Z,100027.09
2023-02-01T05:34:57.249Z,100032.56
2023-02-01T05:35:59.502Z,100028.75
2023-02-01T05:37:01.679Z,100021.63
2023-02-01T05:38:03.824Z,100030.66
2023-02-01T05:39:06.001Z,100026.84
2023-02-01T05:40:08.975Z,100028.75
2023-02-01T05:41:11.266Z,100031.47
2023-02-01T05:42:13.587Z,100037.56
2023-02-01T05:43:15.972Z,100029.34
2023-02-01T05:44:18.195Z,100032.91
2023-02-01T05:45:20.598Z,100039.47
2023-02-01T05:46:22.887Z,100035.66
2023-02-01T05:47:25.156Z,100032.91
2023-02-01T05:48:27.631Z,100030.19
2023-02-01T05:49:29.853Z,100033.78
2023-02-01T05:50:32.171Z,100035.66
2023-02-01T05:51:35.412Z,100034.59
2023-02-01T05:52:38.767Z,100034.59
2023-02-01T05:53:41.017Z,100040.06
2023-02-01T05:54:44.267Z,100029.13
2023-02-01T05:55:46.431Z,100031.03
2023-02-01T05:56:49.718Z,100032.72
2023-02-01T05:57:51.947Z,100029.13
2023-02-01T05:58:56.394Z,100026.38
2023-02-01T06:00:00.650Z,100025.34
2023-02-01T06:01:04.537Z,100028.06
2023-02-01T06:02:06.959Z,100015.22
2023-02-01T06:03:09.269Z,100016.31
2023-02-01T06:04:11.466Z,100029.75
2023-02-01T06:05:13.718Z,100017.34
2023-02-01T06:06:18.183Z,100015.44
2023-02-01T06:07:20.428Z,100021.16
2023-02-01T06:08:25.406Z,100015.44
2023-02-01T06:09:29.314Z,100009.16
2023-02-01T06:10:31.518Z,100019.88
2023-02-01T06:11:33.731Z,99994.41
2023-02-01T06:12:35.993Z,100017.13
2023-02-01T06:13:39.734Z,100016.91
2023-02-01T06:14:42.225Z,100022.38
2023-02-01T06:15:45.225Z,100002.38
2023-02-01T06:16:47.711Z,100017.94
2023-02-01T06:17:50.043Z,100016.06
2023-02-01T06:18:53.129Z,100007.00
2023-02-01T06:19:56.124Z,100008.91
2023-02-01T06:21:01.155Z,100010.84
2023-02-01T06:22:08.540Z,100004.50
2023-02-01T06:23:10.918Z,100012.72
2023-02-01T06:24:13.571Z,100002.00
2023-02-01T06:25:15.830Z,100015.44
2023-02-01T06:26:19.218Z,100015.44
2023-02-01T06:27:24.369Z,100022.59
2023-02-01T06:28:26.526Z,100014.38
2023-02-01T06:29:28.896Z,100015.69
2023-02-01T06:30:31.669Z,100014.63
2023-02-01T06:31:34.876Z,100019.88
2023-02-01T06:32:37.322Z,100015.22
2023-02-01T06:33:40.001Z,100023.41
2023-02-01T06:34:42.154Z,100015.22
2023-02-01T06:35:48.273Z,100026.78
2023-02-01T06:36:51.051Z,100020.47
2023-02-01T06:37:53.232Z,100015.00
2023-02-01T06:38:57.593Z,100024.88
2023-02-01T06:40:00.038Z,100017.75
2023-02-01T06:41:03.774Z,100022.97
2023-02-01T06:42:06.062Z,100027.59
2023-02-01T06:43:09.772Z,100023.81
2023-02-01T06:44:11.977Z,100024.66
2023-02-01T06:45:14.625Z,100021.94
2023-02-01T06:46:16.860Z,100021.94
2023-02-01T06:47:19.084Z,100009.91
2023-02-01T06:48:21.804Z,100009.06
2023-02-01T06:49:24.011Z,100011.81
2023-02-01T06:50:26.265Z,100003.59
2023-02-01T06:51:30.253Z,100003.59
2023-02-01T06:52:32.465Z,100007.16
2023-02-01T06:53:35.358Z,100008.84
2023-02-01T06:54:38.837Z,100003.38
2023-02-01T06:55:41.223Z,100010.50
2023-02-01T06:56:43.471Z,99997.06
2023-02-01T06:57:45.667Z,100002.31
2023-02-01T06:58:48.918Z,99989.44
2023-02-01T06:59:51.197Z,100002.31
2023-02-01T07:00:55.030Z,100003.38
2023-02-01T07:01:57.377Z,99998.94
2023-02-01T07:03:00.970Z,99996.84
2023-02-01T07:04:04.015Z,100005.03
2023-02-01T07:05:06.498Z,100003.13
2023-02-01T07:06:10.138Z,99994.91
2023-02-01T07:07:13.202Z,100003.38
2023-02-01T07:08:17.790Z,99999.56
2023-02-01T07:09:20.042Z,99999.56
2023-02-01T07:10:22.483Z,99999.56
2023-02-01T07:11:25.536Z,100005.88
2023-02-01T07:12:27.695Z,99991.38
2023-02-01T07:13:29.895Z,100001.47
2023-02-01T07:14:32.653Z,100001.47
2023-02-01T07:15:35.175Z,99988.63
2023-02-01T07:16:37.862Z,99995.78
2023-02-01T07:17:40.414Z,99995.78
2023-02-01T07:18:44.279Z,100002.06
2023-02-01T07:19:46.674Z,99998.50
2023-02-01T07:20:52.564Z,99983.97
2023-02-01T07:21:54.875Z,99988.41
2023-02-01T07:22:58.282Z,99976.00
2023-02-01T07:24:00.970Z,99989.69
2023-02-01T07:25:06.505Z,99978.50
2023-02-01T07:26:13.313Z,99986.94
2023-02-01T07:27:16.661Z,99989.69
2023-02-01T07:28:18.857Z,99983.38
2023-02-01T07:29:21.905Z,99987.19
2023-02-01T07:30:24.432Z,99981.72
2023-02-01T07:31:27.621Z,99981.72
2023-02-01T07:32:30.709Z,99980.66
2023-02-01T07:33:33.941Z,99979.81
2023-02-01T07:34:36.517Z,99980.91
2023-02-01T07:35:38.646Z,99990.97
2023-02-01T07:36:40.924Z,99980.03
2023-02-01T07:37:43.825Z,99974.56
2023-02-01T07:38:48.186Z,99978.34
2023-02-01T07:39:51.261Z,99989.09
2023-02-01T07:40:58.639Z,99971.84
2023-02-01T07:42:01.662Z,99965.78
2023-02-01T07:43:06.323Z,99974.81
2023-02-01T07:44:08.643Z,99981.94
2023-02-01T07:45:20.983Z,99977.78
2023-02-01T07:46:24.378Z,99976.09
2023-02-01T07:47:26.576Z,99976.91
2023-02-01T07:48:29.653Z,99969.81
2023-02-01T07:49:32.069Z,99970.63
2023-02-01T07:50:35.371Z,99970.88
2023-02-01T07:51:37.673Z,99969.19
2023-02-01T07:52:41.128Z,99963.72
2023-02-01T07:53:44.631Z,99963.94
2023-02-01T07:54:47.053Z,99975.94
2023-02-01T07:55:49.278Z,99958.72
2023-02-01T07:56:51.523Z,99965.00
2023-02-01T07:57:57.372Z,99965.00
2023-02-01T07:59:01.714Z,99965.00
2023-02-01T08:00:23.227Z,99974.28
2023-02-01T08:01:27.849Z,99962.50
2023-02-01T08:02:30.161Z,99954.31
2023-02-01T08:03:33.385Z,99963.56
2023-02-01T08:04:35.752Z,99958.72
2023-02-01T08:05:40.671Z,99969.66
2023-02-01T08:06:43.662Z,99956.81
2023-02-01T08:07:49.906Z,99965.00
2023-02-01T08:08:53.301Z,99958.72
2023-02-01T08:09:55.465Z,99954.06
2023-02-01T08:11:03.036Z,99955.97
2023-02-01T08:12:05.372Z,99953.25
2023-02-01T08:13:07.524Z,99955.97
2023-02-01T08:14:10.591Z,99952.38
2023-02-01T08:15:12.869Z,99949.66
2023-02-01T08:16:16.970Z,99942.31
2023-02-01T08:17:19.255Z,99951.56
2023-02-01T08:18:22.013Z,99951.81
2023-02-01T08:19:24.222Z,99951.56
2023-02-01T08:20:31.348Z,99946.09
2023-02-01T08:21:39.304Z,99946.09
2023-02-01T08:22:41.943Z,99933.47
2023-02-01T08:23:45.797Z,99941.69
2023-02-01T08:24:51.027Z,99947.97
2023-02-01T08:25:53.156Z,99935.63
2023-02-01T08:26:55.656Z,99932.66
2023-02-01T08:27:57.990Z,99931.81
2023-02-01T08:29:04.112Z,99927.19
2023-02-01T08:30:08.303Z,99925.50
2023-02-01T08:31:13.330Z,99921.72
2023-02-01T08:32:15.866Z,99927.19
2023-02-01T08:33:18.318Z,99920.88
2023-02-01T08:34:21.608Z,99924.69
2023-02-01T08:35:37.880Z,99922.78
2023-02-01T08:36:44.790Z,99925.75
2023-02-01T08:37:47.047Z,99924.69
2023-02-01T08:38:51.477Z,99926.34
2023-02-01T08:39:53.897Z,99919.81
2023-02-01T08:40:56.272Z,99923.59
2023-02-01T08:42:17.022Z,99921.47
2023-02-01T08:43:19.948Z,99914.09
2023-02-01T08:44:22.453Z,99912.41
2023-02-01T08:45:33.170Z,99921.47
2023-02-01T08:46:35.519Z,99919.56
2023-02-01T08:47:37.755Z,99921.47
2023-02-01T08:48:40.017Z,99911.13
2023-02-01T08:49:42.176Z,99917.69
2023-02-01T08:50:44.706Z,99914.72
2023-02-01T08:51:46.963Z,99903.53
2023-02-01T08:52:49.261Z,99909.84
2023-02-01T08:53:51.965Z,99910.69
2023-02-01T08:54:54.202Z,99914.72
2023-02-01T08:55:56.763Z,99906.28
2023-02-01T08:56:59.024Z,99911.50
2023-02-01T08:58:01.242Z,99897.84
2023-02-01T08:59:03.568Z,99906.66
2023-02-01T09:00:08.696Z,99901.75
2023-02-01T09:01:17.256Z,99902.38
2023-02-01T09:02:19.769Z,99888.94
2023-02-01T09:03:22.427Z,99883.22
2023-02-01T09:04:25.686Z,99898.34
2023-02-01T09:05:40.697Z,99880.25
2023-02-01T09:06:49.942Z,99895.63
2023-02-01T09:07:52.109Z,99901.69
2023-02-01T09:08:54.405Z,99901.47
2023-02-01T09:09:57.484Z,99907.53
2023-02-01T09:11:03.805Z,99904.56
2023-02-01T09:12:06.510Z,99906.22
2023-02-01T09:13:09.907Z,99912.31
2023-02-01T09:14:12.868Z,99909.34
2023-02-01T09:15:15.142Z,99916.00
2023-02-01T09:16:17.377Z,99917.94
2023-02-01T09:17:19.762Z,99912.22
2023-02-01T09:18:22.263Z,99915.56
2023-02-01T09:19:26.719Z,99918.88
2023-02-01T09:20:29.363Z,99918.88
2023-02-01T09:21:31.675Z,99918.66
2023-02-01T09:22:33.891Z,99919.50
2023-02-01T09:23:36.572Z,99924.72
2023-02-01T09:24:39.216Z,99931.03
2023-02-01T09:25:41.389Z,99929.97
2023-02-01T09:26:43.815Z,99929.97
2023-02-01T09:27:46.121Z,99918.78
2023-02-01T09:28:51.153Z,99914.16
2023-02-01T09:29:54.464Z,99914.75
2023-02-01T09:30:59.149Z,99896.66
2023-02-01T09:32:04.427Z,99912.25
2023-02-01T09:33:09.407Z,99916.03
2023-02-01T09:34:11.683Z,99917.72
2023-02-01T09:35:13.873Z,99895.81
2023-02-01T09:36:16.066Z,99916.91
2023-02-01T09:37:19.701Z,99920.47
2023-02-01T09:38:22.082Z,99925.94
2023-02-01T09:39:24.416Z,99933.66
2023-02-01T09:40:27.050Z,99924.63
2023-02-01T09:41:48.009Z,99927.38
2023-02-01T09:43:05.730Z,99935.56
2023-02-01T09:44:42.353Z,99924.00
2023-02-01T09:46:00.350Z,99947.81
2023-02-01T09:47:02.790Z,99946.53
2023-02-01T09:48:13.882Z,99940.44
2023-02-01T09:49:23.271Z,99948.06
2023-02-01T09:50:38.485Z,99949.97
2023-02-01T09:51:46.741Z,99958.41
2023-02-01T09:53:01.010Z,99958.63
2023-02-01T09:54:21.435Z,99956.13
2023-02-01T09:55:38.976Z,99947.53
2023-02-01T09:56:47.457Z,99956.59
2023-02-01T09:58:08.259Z,99956.00
2023-02-01T09:59:32.062Z,99963.00
2023-02-01T10:00:39.863Z,99971.66
2023-02-01T10:01:45.252Z,99968.09
2023-02-01T10:02:47.621Z,99970.22
2023-02-01T10:03:51.367Z,99965.44
2023-02-01T10:04:57.942Z,99962.72
2023-02-01T10:06:31.262Z,99982.09
2023-02-01T10:08:02.645Z,99971.59
2023-02-01T10:09:32.162Z,99975.63
2023-02-01T10:10:44.564Z,99964.09
2023-02-01T10:12:03.235Z,99975.47
2023-02-01T10:13:24.823Z,99976.56
2023-02-01T10:14:51.798Z,99976.19
2023-02-01T10:16:17.205Z,99966.28
2023-02-01T10:17:47.452Z,99974.75
2023-02-01T10:19:06.010Z,99977.94
2023-02-01T10:20:29.717Z,99979.22
2023-02-01T10:21:42.760Z,99975.66
2023-02-01T10:23:11.444Z,99975.06
2023-02-01T10:24:19.686Z,99980.53
2023-02-01T10:25:29.719Z,99982.63
2023-02-01T10:26:37.791Z,99978.47
2023-02-01T10:27:41.517Z,99982.25
2023-02-01T10:28:46.729Z,99973.22
2023-02-01T10:29:55.983Z,99973.66
2023-02-01T10:30:59.772Z,99975.56
2023-02-01T10:32:04.200Z,99982.94
2023-02-01T10:33:24.573Z,99978.31
2023-02-01T10:34:34.637Z,99967.38
2023-02-01T10:35:37.782Z,99971.16
2023-02-01T10:36:54.474Z,99959.41
2023-02-01T10:37:57.164Z,99986.75
2023-02-01T10:39:00.519Z,99976.63
2023-02-01T10:40:21.028Z,99975.56
2023-02-01T10:41:35.048Z,99977.25
2023-02-01T10:42:37.260Z,99974.53
2023-02-01T10:43:40.388Z,99974.53
2023-02-01T10:44:46.578Z,99975.56
2023-02-01T10:45:49.255Z,99976.19
2023-02-01T10:46:55.248Z,99977.03
2023-02-01T10:48:02.455Z,99979.53
2023-02-01T10:49:07.627Z,99970.25
2023-02-01T10:50:33.144Z,99962.88
2023-02-01T10:51:46.732Z,99967.28
2023-02-01T10:53:12.388Z,99977.78
2023-02-01T10:54:23.867Z,99974.19
2023-02-01T10:55:39.896Z,99969.34
2023-02-01T10:56:44.993Z,99974.59
2023-02-01T10:57:57.238Z,99972.47
2023-02-01T10:59:04.750Z,99989.72
2023-02-01T11:00:20.953Z,99971.19
2023-02-01T11:01:33.783Z,99989.00
2023-02-01T11:02:37.196Z,99990.44
2023-02-01T11:03:45.564Z,99989.38
2023-02-01T11:04:49.156Z,99985.84
2023-02-01T11:05:51.421Z,99986.22
2023-02-01T11:07:09.080Z,99990.59
2023-02-01T11:08:18.452Z,99998.59
2023-02-01T11:09:23.236Z,99981.94
2023-02-01T11:10:38.182Z,100000.88
2023-02-01T11:11:49.765Z,100003.38
2023-02-01T11:12:55.004Z,99990.53
2023-02-01T11:14:12.053Z,99994.91
2023-02-01T11:15:19.277Z,99995.53
2023-02-01T11:16:21.792Z,99993.44
2023-02-01T11:17:33.293Z,99987.47
2023-02-01T11:18:42.280Z,99983.69
2023-02-01T11:19:59.249Z,99991.66
2023-02-01T11:21:04.415Z,99984.03
2023-02-01T11:22:08.525Z,99986.56
2023-02-01T11:23:16.890Z,99979.19
2023-02-01T11:24:29.871Z,99993.25
2023-02-01T11:25:36.887Z,99988.59
2023-02-01T11:26:42.567Z,99988.34
2023-02-01T11:27:54.517Z,99990.03
2023-02-01T11:29:16.064Z,99986.25
2023-02-01T11:30:50.684Z,99983.03
2023-02-01T11:31:53.181Z,99974.81
2023-02-01T11:32:55.490Z,99976.25
2023-02-01T11:34:09.827Z,99982.59
2023-02-01T11:35:18.664Z,99980.09
2023-02-01T11:36:27.636Z,99984.22
2023-02-01T11:37:35.916Z,99974.13
2023-02-01T11:38:38.127Z,99970.09
2023-02-01T11:39:40.409Z,99978.91
2023-02-01T11:40:42.995Z,99975.34
2023-02-01T11:42:03.993Z,99969.63
2023-02-01T11:43:24.844Z,99956.56
2023-02-01T11:44:33.138Z,99966.44
2023-02-01T11:45:38.517Z,99957.13
2023-02-01T11:46:41.824Z,99959.66
2023-02-01T11:47:44.327Z,99960.25
2023-02-01T11:48:49.016Z,99938.34
2023-02-01T11:49:55.748Z,99945.75
2023-02-01T11:51:28.401Z,99963.59
2023-02-01T11:52:41.198Z,99958.72
2023-02-01T11:54:11.278Z,99962.06
2023-02-01T11:55:35.916Z,99941.84
2023-02-01T11:57:00.420Z,99942.66
2023-02-01T11:58:45.177Z,99938.84
2023-02-01T12:00:12.227Z,99946.59
2023-02-01T12:01:45.783Z,99944.72
2023-02-01T12:03:30.404Z,99950.19
2023-02-01T12:05:01.138Z,99949.94
2023-02-01T12:06:09.879Z,99948.88
2023-02-01T12:07:20.517Z,99952.19
2023-02-01T12:08:36.748Z,99944.84
2023-02-01T12:10:02.286Z,99948.63
2023-02-01T12:11:30.949Z,99947.34
2023-02-01T12:13:10.747Z,99948.78
2023-02-01T12:14:27.237Z,99944.97
2023-02-01T12:16:11.956Z,99938.41
2023-02-01T12:17:28.457Z,99934.34
2023-02-01T12:18:48.728Z,99938.81
2023-02-01T12:20:09.128Z,99943.22
2023-02-01T12:21:53.222Z,99943.22
2023-02-01T12:23:20.125Z,99940.84
2023-02-01T12:24:22.755Z,99938.09
2023-02-01T12:25:43.501Z,99939.53
2023-02-01T12:27:13.066Z,99924.75
2023-02-01T12:28:36.919Z,99930.84
2023-02-01T12:30:04.276Z,99921.56
2023-02-01T12:31:25.179Z,99932.53
2023-02-01T12:33:08.927Z,99928.09
2023-02-01T12:34:25.896Z,99934.41
2023-02-01T12:35:50.821Z,99933.09
2023-02-01T12:36:53.224Z,99925.72
2023-02-01T12:38:09.869Z,99928.47
2023-02-01T12:39:32.782Z,99924.66
2023-02-01T12:41:11.061Z,99931.78
2023-02-01T12:42:26.753Z,99926.09
2023-02-01T12:43:37.228Z,99927.75
2023-02-01T12:44:44.078Z,99931.09
2023-02-01T12:45:53.373Z,99930.28
2023-02-01T12:47:04.755Z,99935.75
2023-02-01T12:48:24.471Z,99934.44
2023-02-01T12:49:48.751Z,99923.47
2023-02-01T12:50:56.778Z,99933.13
2023-02-01T12:52:05.849Z,99927.88
2023-02-01T12:53:21.736Z,99930.59
2023-02-01T12:54:36.283Z,99925.50
2023-02-01T12:55:46.955Z,99929.66
2023-02-01T12:56:57.397Z,99914.28
2023-02-01T12:58:17.784Z,99906.91
2023-02-01T13:00:11.427Z,99923.13
2023-02-01T13:01:20.680Z,99919.31
2023-02-01T13:02:34.567Z,99910.84
2023-02-01T13:03:50.155Z,99910.00
2023-02-01T13:05:17.975Z,99924.78
2023-02-01T13:06:38.727Z,99927.53
2023-02-01T13:07:49.066Z,99920.75